createdAt,value
2018-03-31T00:01:57.876Z,13.03
2018-03-31T00:04:26.561Z,13.50
2018-03-31T00:06:54.466Z,13.63
2018-03-31T00:09:21.603Z,13.57
2018-03-31T00:11:49.208Z,13.23
2018-03-31T00:14:16.381Z,12.63
2018-03-31T00:16:43.968Z,12.70
2018-03-31T00:19:11.167Z,13.77
2018-03-31T00:21:38.719Z,13.40
2018-03-31T00:24:05.904Z,13.20
2018-03-31T00:26:33.829Z,13.80
2018-03-31T00:29:01.377Z,12.57
2018-03-31T00:31:29.374Z,12.90
2018-03-31T00:33:56.544Z,14.00
2018-03-31T00:36:23.717Z,13.97
2018-03-31T00:38:51.351Z,14.23
2018-03-31T00:41:18.481Z,12.63
2018-03-31T00:43:45.694Z,13.60
2018-03-31T00:46:13.657Z,14.20
2018-03-31T00:48:40.818Z,14.20
2018-03-31T00:51:08.774Z,13.57
2018-03-31T00:53:35.922Z,14.90
2018-03-31T00:56:03.102Z,14.33
2018-03-31T00:58:30.654Z,14.77
2018-03-31T01:00:58.177Z,14.67
2018-03-31T01:03:26.064Z,14.53
2018-03-31T01:05:53.188Z,14.60
2018-03-31T01:08:21.080Z,14.03
2018-03-31T01:10:49.409Z,13.97
2018-03-31T01:13:16.575Z,14.23
2018-03-31T01:15:44.194Z,12.77
2018-03-31T01:18:12.095Z,13.97
2018-03-31T01:20:39.239Z,13.43
2018-03-31T01:23:06.430Z,14.97
2018-03-31T01:25:33.881Z,14.47
2018-03-31T01:28:01.831Z,15.17
2018-03-31T01:30:30.584Z,14.53
2018-03-31T01:32:58.557Z,13.77
2018-03-31T01:35:25.712Z,13.83
2018-03-31T01:37:53.235Z,15.47
2018-03-31T01:40:20.820Z,15.63
2018-03-31T01:42:48.402Z,15.23
2018-03-31T01:45:16.711Z,13.47
2018-03-31T01:47:44.693Z,13.67
2018-03-31T01:50:12.622Z,14.80
2018-03-31T01:52:39.839Z,14.77
2018-03-31T01:55:06.979Z,14.87
2018-03-31T01:57:34.602Z,16.33
2018-03-31T02:00:02.156Z,14.33
2018-03-31T02:02:30.943Z,14.40
2018-03-31T02:04:58.488Z,15.73
2018-03-31T02:07:26.412Z,15.37
2018-03-31T02:09:53.569Z,15.77
2018-03-31T02:12:21.475Z,13.23
2018-03-31T02:14:49.467Z,13.43
2018-03-31T02:17:17.455Z,13.73
2018-03-31T02:19:44.572Z,15.13
2018-03-31T02:22:13.224Z,14.60
2018-03-31T02:24:41.140Z,16.17
2018-03-31T02:27:08.715Z,14.90
2018-03-31T02:29:35.930Z,14.47
2018-03-31T02:32:03.108Z,15.10
2018-03-31T02:34:30.279Z,15.13
2018-03-31T02:36:58.222Z,14.93
2018-03-31T02:39:25.847Z,14.37
2018-03-31T02:41:53.036Z,15.43
2018-03-31T02:44:20.188Z,15.53
2018-03-31T02:46:47.755Z,15.23
2018-03-31T02:49:15.400Z,15.23
2018-03-31T02:51:42.544Z,15.37
2018-03-31T02:54:09.709Z,16.57
2018-03-31T02:56:36.869Z,16.00
2018-03-31T02:59:05.655Z,16.00
2018-03-31T03:01:33.590Z,16.97
2018-03-31T03:04:01.113Z,16.87
2018-03-31T03:06:29.032Z,16.27
2018-03-31T03:08:57.734Z,17.17
2018-03-31T03:11:24.918Z,15.83
2018-03-31T03:13:52.864Z,17.80
2018-03-31T03:16:20.068Z,16.83
2018-03-31T03:18:47.211Z,18.67
2018-03-31T03:21:14.365Z,17.00
2018-03-31T03:23:41.569Z,16.40
2018-03-31T03:26:09.478Z,17.07
2018-03-31T03:28:36.999Z,17.13
2018-03-31T03:31:05.777Z,17.33
2018-03-31T03:33:33.348Z,17.17
2018-03-31T03:36:02.041Z,18.03
2018-03-31T03:38:29.942Z,17.00
2018-03-31T03:40:57.552Z,17.07
2018-03-31T03:43:24.726Z,18.43
2018-03-31T03:45:52.291Z,17.43
2018-03-31T03:48:20.266Z,18.20
2018-03-31T03:50:47.440Z,16.93
2018-03-31T03:53:14.955Z,17.20
2018-03-31T03:55:42.876Z,17.37
2018-03-31T03:58:10.444Z,17.30
2018-03-31T04:00:38.374Z,19.03
2018-03-31T04:03:05.520Z,18.50
2018-03-31T04:05:32.673Z,18.07
2018-03-31T04:07:59.834Z,17.90
2018-03-31T04:10:27.053Z,20.03
2018-03-31T04:12:54.991Z,19.37
2018-03-31T04:15:22.217Z,18.10
2018-03-31T04:17:49.368Z,19.10
2018-03-31T04:20:16.489Z,19.27
2018-03-31T04:22:44.084Z,18.97
2018-03-31T04:25:11.226Z,19.07
2018-03-31T04:27:38.404Z,20.20
2018-03-31T04:30:05.561Z,20.53
2018-03-31T04:32:33.040Z,20.00
2018-03-31T04:35:00.612Z,18.73
2018-03-31T04:37:27.774Z,21.00
2018-03-31T04:39:55.757Z,20.03
2018-03-31T04:42:22.913Z,19.70
2018-03-31T04:44:50.090Z,20.90
2018-03-31T04:47:17.607Z,22.20
2018-03-31T04:49:45.542Z,20.87
2018-03-31T04:52:13.150Z,20.97
2018-03-31T04:54:41.075Z,20.27
2018-03-31T04:57:08.653Z,20.27
2018-03-31T04:59:36.580Z,21.47
2018-03-31T05:02:03.815Z,20.97
2018-03-31T05:04:31.408Z,20.40
2018-03-31T05:06:59.385Z,19.40
2018-03-31T05:09:27.668Z,20.53
2018-03-31T05:11:55.613Z,22.00
2018-03-31T05:14:23.532Z,20.30
2018-03-31T05:16:50.750Z,21.00
2018-03-31T05:19:18.709Z,22.37
2018-03-31T05:21:46.265Z,20.13
2018-03-31T05:24:13.785Z,21.53
2018-03-31T05:26:41.692Z,20.83
2018-03-31T05:29:10.421Z,22.63
2018-03-31T05:31:38.392Z,22.10
2018-03-31T05:34:06.331Z,22.73
2018-03-31T05:36:34.310Z,22.37
2018-03-31T05:39:02.201Z,23.00
2018-03-31T05:41:29.793Z,20.93
2018-03-31T05:43:57.349Z,23.40
2018-03-31T05:46:25.254Z,21.77
2018-03-31T05:48:54.043Z,22.73
2018-03-31T05:51:21.986Z,21.77
2018-03-31T05:53:49.915Z,22.63
2018-03-31T05:56:17.044Z,22.67
2018-03-31T05:58:45.011Z,23.43
2018-03-31T06:01:12.556Z,23.60
2018-03-31T06:03:40.482Z,21.97
2018-03-31T06:06:08.090Z,24.03
2018-03-31T06:08:36.360Z,23.73
2018-03-31T06:11:03.493Z,22.00
2018-03-31T06:13:31.408Z,24.23
2018-03-31T06:15:58.596Z,23.77
2018-03-31T06:18:25.722Z,24.63
2018-03-31T06:20:53.686Z,24.73
2018-03-31T06:23:20.859Z,24.13
2018-03-31T06:25:48.452Z,24.70
2018-03-31T06:28:16.339Z,25.83
2018-03-31T06:30:44.307Z,24.00
2018-03-31T06:33:11.437Z,25.53
2018-03-31T06:35:38.999Z,26.83
2018-03-31T06:38:06.611Z,25.83
2018-03-31T06:40:33.794Z,25.87
2018-03-31T06:43:00.941Z,27.13
2018-03-31T06:45:28.864Z,25.23
2018-03-31T06:47:56.084Z,27.53
2018-03-31T06:50:23.648Z,27.47
2018-03-31T06:52:51.590Z,26.03
2018-03-31T06:55:19.137Z,25.73
2018-03-31T06:57:47.038Z,25.83
2018-03-31T07:00:15.339Z,25.87
2018-03-31T07:02:43.293Z,25.27
2018-03-31T07:05:11.985Z,24.77
2018-03-31T07:07:39.905Z,26.07
2018-03-31T07:10:07.804Z,29.13
2018-03-31T07:12:35.793Z,26.93
2018-03-31T07:15:03.717Z,29.97
2018-03-31T07:17:30.862Z,29.43
2018-03-31T07:19:58.452Z,27.83
2018-03-31T07:22:26.413Z,27.57
2018-03-31T07:24:54.305Z,28.47
2018-03-31T07:27:21.480Z,28.33
2018-03-31T07:29:50.169Z,25.80
2018-03-31T07:32:17.772Z,27.80
2018-03-31T07:34:44.948Z,28.23
2018-03-31T07:37:12.835Z,27.90
2018-03-31T07:39:40.011Z,30.57
2018-03-31T07:42:07.958Z,30.50
2018-03-31T07:44:35.108Z,28.00
2018-03-31T07:47:02.342Z,29.90
2018-03-31T07:49:29.954Z,27.97
2018-03-31T07:51:57.141Z,27.13
2018-03-31T07:54:25.460Z,26.67
2018-03-31T07:56:52.656Z,26.53
2018-03-31T07:59:20.566Z,26.23
2018-03-31T08:01:47.750Z,24.63
2018-03-31T08:04:14.951Z,27.13
2018-03-31T08:06:42.118Z,24.00
2018-03-31T08:09:10.773Z,26.97
2018-03-31T08:11:38.732Z,26.53
2018-03-31T08:14:05.921Z,27.10
2018-03-31T08:16:33.834Z,26.30
2018-03-31T08:19:01.402Z,26.60
2018-03-31T08:21:28.617Z,28.97
2018-03-31T08:23:56.198Z,26.97
2018-03-31T08:26:23.756Z,25.90
2018-03-31T08:28:52.550Z,28.37
2018-03-31T08:31:20.134Z,26.73
2018-03-31T08:33:48.070Z,26.07
2018-03-31T08:36:16.246Z,23.40
2018-03-31T08:38:45.048Z,22.87
2018-03-31T08:41:12.241Z,24.30
2018-03-31T08:43:40.195Z,23.63
2018-03-31T08:46:07.732Z,24.93
2018-03-31T08:48:35.294Z,23.07
2018-03-31T08:51:02.821Z,24.53
2018-03-31T08:53:30.028Z,23.93
2018-03-31T08:55:57.156Z,25.37
2018-03-31T08:58:25.082Z,22.87
2018-03-31T09:00:52.261Z,24.30
2018-03-31T09:03:19.630Z,25.23
2018-03-31T09:05:47.591Z,23.77
2018-03-31T09:08:15.160Z,22.67
2018-03-31T09:10:43.516Z,23.67
2018-03-31T09:13:11.111Z,23.90
2018-03-31T09:15:39.490Z,23.67
2018-03-31T09:18:07.379Z,20.93
2018-03-31T09:20:35.321Z,23.13
2018-03-31T09:23:03.314Z,23.60
2018-03-31T09:25:30.500Z,23.23
2018-03-31T09:27:58.434Z,24.27
2018-03-31T09:30:27.126Z,22.80
2018-03-31T09:32:54.681Z,22.60
2018-03-31T09:35:23.473Z,24.30
2018-03-31T09:37:51.846Z,24.27
2018-03-31T09:40:19.860Z,25.37
2018-03-31T09:42:47.463Z,25.47
2018-03-31T09:45:16.159Z,24.33
2018-03-31T09:47:43.326Z,24.23
2018-03-31T09:50:10.516Z,24.23
2018-03-31T09:52:38.423Z,25.30
2018-03-31T09:55:05.593Z,25.60
2018-03-31T09:57:33.157Z,26.77
2018-03-31T10:00:00.312Z,24.10
2018-03-31T10:02:27.488Z,26.53
2018-03-31T10:04:56.173Z,24.27
2018-03-31T10:07:23.389Z,23.70
2018-03-31T10:09:50.910Z,25.00
2018-03-31T10:12:18.463Z,24.90
2018-03-31T10:14:46.136Z,23.37
2018-03-31T10:17:14.480Z,23.17
2018-03-31T10:19:41.692Z,23.00
2018-03-31T10:22:08.876Z,26.50
2018-03-31T10:24:37.509Z,24.17
2018-03-31T10:27:04.698Z,25.40
2018-03-31T10:29:33.436Z,25.60
2018-03-31T10:32:01.482Z,26.07
2018-03-31T10:34:28.739Z,23.23
2018-03-31T10:36:55.901Z,25.17
2018-03-31T10:39:23.834Z,27.00
2018-03-31T10:41:51.412Z,26.73
2018-03-31T10:44:18.586Z,24.07
2018-03-31T10:46:46.129Z,24.77
2018-03-31T10:49:14.450Z,25.53
2018-03-31T10:51:42.362Z,23.37
2018-03-31T10:54:09.970Z,26.03
2018-03-31T10:56:37.926Z,26.40
2018-03-31T10:59:05.811Z,26.83
2018-03-31T11:01:33.729Z,27.23
2018-03-31T11:04:00.852Z,27.13
2018-03-31T11:06:28.034Z,28.60
2018-03-31T11:08:55.590Z,26.97
2018-03-31T11:11:22.833Z,26.10
2018-03-31T11:13:50.026Z,27.37
2018-03-31T11:16:17.643Z,25.80
2018-03-31T11:18:46.314Z,25.03
2018-03-31T11:21:14.633Z,25.53
2018-03-31T11:23:42.235Z,23.50
2018-03-31T11:26:09.410Z,23.27
2018-03-31T11:28:36.575Z,23.57
2018-03-31T11:31:03.764Z,22.30
2018-03-31T11:33:31.693Z,23.10
2018-03-31T11:35:59.639Z,22.30
2018-03-31T11:38:26.793Z,23.00
2018-03-31T11:40:54.338Z,21.87
2018-03-31T11:43:21.924Z,21.97
2018-03-31T11:45:49.095Z,24.50
2018-03-31T11:48:16.306Z,33.70
2018-03-31T11:50:43.508Z,26.37
2018-03-31T11:53:10.639Z,23.43
2018-03-31T11:55:38.573Z,22.07
2018-03-31T11:58:06.470Z,23.53
2018-03-31T12:00:33.662Z,21.93
2018-03-31T12:03:01.951Z,22.50
2018-03-31T12:05:29.100Z,22.63
2018-03-31T12:07:58.273Z,21.37
2018-03-31T12:10:26.233Z,22.80
2018-03-31T12:12:53.406Z,21.37
2018-03-31T12:15:21.366Z,22.03
2018-03-31T12:17:49.317Z,21.47
2018-03-31T12:20:16.445Z,20.57
2018-03-31T12:22:44.802Z,20.53
2018-03-31T12:25:13.128Z,20.40
2018-03-31T12:27:41.389Z,20.17
2018-03-31T12:30:09.683Z,20.20
2018-03-31T12:32:38.403Z,20.17
2018-03-31T12:35:06.339Z,19.13
2018-03-31T12:37:34.247Z,19.73
2018-03-31T12:40:01.406Z,19.70
2018-03-31T12:42:28.990Z,17.97
2018-03-31T12:44:56.156Z,19.20
2018-03-31T12:47:23.308Z,19.87
2018-03-31T12:49:50.461Z,20.07
2018-03-31T12:52:18.398Z,20.80
2018-03-31T12:54:45.657Z,19.60
2018-03-31T12:57:14.392Z,20.27
2018-03-31T12:59:42.369Z,19.20
2018-03-31T13:02:10.321Z,18.57
2018-03-31T13:04:37.557Z,19.37
2018-03-31T13:07:05.849Z,19.87
2018-03-31T13:09:33.806Z,19.53
2018-03-31T13:12:00.984Z,18.83
2018-03-31T13:14:28.997Z,19.27
2018-03-31T13:16:56.155Z,18.90
2018-03-31T13:19:24.076Z,19.07
2018-03-31T13:21:51.992Z,19.47
2018-03-31T13:24:19.513Z,20.17
2018-03-31T13:26:47.456Z,19.50
2018-03-31T13:29:15.378Z,19.73
2018-03-31T13:31:42.528Z,19.73
2018-03-31T13:34:09.658Z,19.60
2018-03-31T13:36:37.205Z,20.27
2018-03-31T13:39:05.119Z,20.50
2018-03-31T13:41:32.342Z,20.43
2018-03-31T13:43:59.551Z,19.47
2018-03-31T13:46:27.583Z,20.77
2018-03-31T13:48:55.174Z,20.10
2018-03-31T13:51:23.092Z,20.60
2018-03-31T13:53:50.234Z,21.53
2018-03-31T13:56:17.455Z,20.73
2018-03-31T13:58:45.032Z,23.87
2018-03-31T14:01:12.179Z,21.27
2018-03-31T14:03:39.300Z,21.83
2018-03-31T14:06:06.507Z,24.60
2018-03-31T14:08:34.425Z,21.13
2018-03-31T14:11:02.392Z,20.83
2018-03-31T14:13:30.318Z,20.90
2018-03-31T14:15:57.850Z,21.83
2018-03-31T14:18:25.821Z,21.13
2018-03-31T14:20:52.938Z,23.40
2018-03-31T14:23:20.126Z,21.50
2018-03-31T14:25:48.043Z,18.90
2018-03-31T14:28:15.196Z,21.00
2018-03-31T14:30:42.757Z,20.53
2018-03-31T14:33:10.316Z,18.90
2018-03-31T14:35:39.028Z,19.67
2018-03-31T14:38:07.033Z,20.63
2018-03-31T14:40:34.925Z,21.77
2018-03-31T14:43:03.575Z,24.67
2018-03-31T14:45:31.469Z,30.30
2018-03-31T14:47:58.997Z,32.77
2018-03-31T14:50:26.921Z,25.83
2018-03-31T14:52:54.080Z,24.63
2018-03-31T14:55:22.062Z,25.47
2018-03-31T14:57:50.368Z,28.37
2018-03-31T15:00:17.528Z,25.90
2018-03-31T15:02:44.736Z,24.47
2018-03-31T15:05:12.337Z,26.70
2018-03-31T15:07:39.902Z,26.87
2018-03-31T15:10:07.502Z,28.50
2018-03-31T15:12:34.717Z,29.97
2018-03-31T15:15:01.886Z,24.70
2018-03-31T15:17:30.590Z,26.73
2018-03-31T15:19:58.566Z,24.73
2018-03-31T15:22:26.111Z,24.97
2018-03-31T15:24:54.071Z,25.00
2018-03-31T15:27:21.998Z,27.00
2018-03-31T15:29:49.562Z,27.27
2018-03-31T15:32:17.079Z,28.60
2018-03-31T15:34:45.947Z,25.43
2018-03-31T15:37:14.222Z,24.10
2018-03-31T15:39:41.421Z,22.10
2018-03-31T15:42:08.633Z,23.17
2018-03-31T15:44:37.287Z,20.87
2018-03-31T15:47:05.264Z,23.67
2018-03-31T15:49:33.534Z,21.83
2018-03-31T15:52:00.694Z,23.77
2018-03-31T15:54:28.246Z,24.03
2018-03-31T15:56:55.414Z,22.47
2018-03-31T15:59:22.968Z,23.47
2018-03-31T16:01:50.174Z,22.53
2018-03-31T16:04:18.927Z,23.77
2018-03-31T16:06:46.108Z,24.43
2018-03-31T16:09:13.228Z,24.10
2018-03-31T16:11:40.388Z,24.17
2018-03-31T16:14:08.377Z,21.90
2018-03-31T16:16:36.722Z,21.93
2018-03-31T16:19:04.249Z,23.27
2018-03-31T16:21:32.614Z,25.23
2018-03-31T16:24:00.505Z,25.33
2018-03-31T16:26:28.829Z,25.40
2018-03-31T16:28:57.165Z,23.37
2018-03-31T16:31:24.334Z,24.40
2018-03-31T16:33:52.598Z,27.53
2018-03-31T16:36:21.263Z,24.00
2018-03-31T16:38:48.781Z,28.23
2018-03-31T16:41:15.984Z,28.93
2018-03-31T16:43:43.172Z,24.17
2018-03-31T16:46:11.170Z,20.10
2018-03-31T16:48:38.317Z,35.57
2018-03-31T16:51:06.235Z,28.07
2018-03-31T16:53:33.482Z,33.50
2018-03-31T16:56:01.395Z,68.20
2018-03-31T16:58:28.573Z,21.00
2018-03-31T17:00:56.148Z,17.03
2018-03-31T17:03:23.697Z,19.03
2018-03-31T17:05:50.915Z,20.20
2018-03-31T17:08:19.172Z,30.83
2018-03-31T17:10:47.111Z,23.43
2018-03-31T17:13:14.280Z,24.03
2018-03-31T17:15:41.475Z,22.93
2018-03-31T17:18:08.639Z,18.23
2018-03-31T17:20:36.591Z,21.87
2018-03-31T17:23:03.807Z,29.97
2018-03-31T17:25:32.065Z,23.63
2018-03-31T17:27:59.207Z,18.30
2018-03-31T17:30:26.375Z,17.50
2018-03-31T17:32:53.910Z,20.13
2018-03-31T17:35:21.493Z,35.10
2018-03-31T17:37:48.679Z,39.40
2018-03-31T17:40:16.602Z,41.77
2018-03-31T17:42:43.735Z,55.23
2018-03-31T17:45:11.385Z,32.43
2018-03-31T17:47:39.700Z,32.97
2018-03-31T17:50:07.648Z,21.03
2018-03-31T17:52:35.235Z,20.63
2018-03-31T17:55:02.398Z,32.53
2018-03-31T17:57:30.688Z,20.93
2018-03-31T17:59:57.808Z,18.67
2018-03-31T18:02:25.460Z,22.97
2018-03-31T18:04:53.036Z,18.57
2018-03-31T18:07:20.561Z,20.00
2018-03-31T18:09:47.721Z,16.77
2018-03-31T18:12:14.877Z,28.07
2018-03-31T18:14:42.160Z,23.37
2018-03-31T18:17:10.445Z,19.60
2018-03-31T18:19:37.657Z,41.70
2018-03-31T18:22:04.878Z,22.37
2018-03-31T18:24:33.569Z,55.40
2018-03-31T18:27:01.109Z,48.07
2018-03-31T18:29:28.343Z,18.47
2018-03-31T18:31:56.713Z,15.63
2018-03-31T18:34:24.722Z,16.60
2018-03-31T18:36:51.863Z,16.73
2018-03-31T18:39:20.637Z,18.37
2018-03-31T18:41:48.639Z,19.70
2018-03-31T18:44:16.659Z,21.80
2018-03-31T18:46:44.618Z,26.53
2018-03-31T18:49:12.182Z,29.87
2018-03-31T18:51:40.142Z,22.23
2018-03-31T18:54:08.884Z,31.37
2018-03-31T18:56:36.040Z,27.77
2018-03-31T18:59:03.960Z,30.63
2018-03-31T19:01:31.902Z,40.00
2018-03-31T19:03:59.494Z,37.15
2018-03-31T19:06:27.028Z,29.97
2018-03-31T19:08:55.318Z,33.47
2018-03-31T19:11:24.127Z,31.20
2018-03-31T19:13:52.959Z,31.37
2018-03-31T19:16:36.619Z,38.57
2018-03-31T19:19:03.776Z,45.87
2018-03-31T19:21:32.074Z,49.83
2018-03-31T19:24:01.129Z,25.87
2018-03-31T19:26:29.054Z,22.93
2018-03-31T19:28:56.295Z,25.10
2018-03-31T19:31:24.645Z,25.77
2018-03-31T19:33:51.794Z,26.23
2018-03-31T19:36:20.539Z,26.90
2018-03-31T19:38:48.496Z,21.62
2018-03-31T19:41:17.253Z,23.60
2018-03-31T19:43:46.051Z,24.92
2018-03-31T19:46:14.364Z,25.00
2018-03-31T19:48:43.034Z,25.52
2018-03-31T19:51:12.243Z,24.77
2018-03-31T19:53:39.836Z,24.70
2018-03-31T19:56:08.189Z,25.17
2018-03-31T19:58:35.750Z,27.00
2018-03-31T20:01:02.922Z,38.78
2018-03-31T20:03:30.481Z,28.00
2018-03-31T20:05:59.544Z,24.87
2018-03-31T20:08:28.268Z,27.87
2018-03-31T20:10:55.419Z,31.75
2018-03-31T20:13:23.038Z,34.53
2018-03-31T20:15:51.719Z,33.05
2018-03-31T20:18:19.639Z,33.70
2018-03-31T20:20:47.927Z,26.92
2018-03-31T20:23:16.717Z,28.08
2018-03-31T20:25:45.530Z,28.27
2018-03-31T20:28:12.740Z,28.90
2018-03-31T20:30:40.695Z,30.98
2018-03-31T20:33:08.258Z,34.20
2018-03-31T20:35:36.940Z,27.92
2018-03-31T20:38:04.164Z,25.37
2018-03-31T20:40:31.734Z,27.27
2018-03-31T20:43:00.524Z,25.92
2018-03-31T20:45:29.180Z,26.15
2018-03-31T20:47:56.773Z,25.80
2018-03-31T20:50:25.054Z,24.52
2018-03-31T20:52:53.055Z,25.88
2018-03-31T20:55:20.197Z,30.45
2018-03-31T20:57:47.840Z,36.30
2018-03-31T21:00:15.732Z,33.72
2018-03-31T21:02:42.899Z,29.52
2018-03-31T21:05:10.843Z,27.92
2018-03-31T21:07:38.378Z,28.58
2018-03-31T21:10:05.933Z,31.17
2018-03-31T21:12:33.512Z,31.17
2018-03-31T21:15:01.097Z,31.30
2018-03-31T21:17:28.286Z,34.10
2018-03-31T21:19:56.211Z,31.98
2018-03-31T21:22:23.380Z,32.03
2018-03-31T21:24:51.295Z,29.37
2018-03-31T21:27:19.279Z,30.70
2018-03-31T21:29:47.231Z,27.90
2018-03-31T21:32:15.548Z,29.23
2018-03-31T21:34:43.469Z,26.00
2018-03-31T21:37:11.457Z,27.40
2018-03-31T21:39:38.593Z,28.90
2018-03-31T21:42:05.814Z,28.90
2018-03-31T21:44:32.953Z,28.25
2018-03-31T21:47:01.299Z,30.10
2018-03-31T21:49:28.461Z,29.98
2018-03-31T21:51:55.586Z,28.80
2018-03-31T21:54:22.781Z,29.87
2018-03-31T21:56:50.336Z,28.67
2018-03-31T21:59:18.648Z,31.92
2018-03-31T22:01:46.564Z,32.60
2018-03-31T22:04:13.781Z,31.98
2018-03-31T22:06:40.916Z,32.88
2018-03-31T22:09:08.100Z,34.70
2018-03-31T22:11:35.242Z,35.20
2018-03-31T22:14:09.587Z,34.60
2018-03-31T22:16:38.252Z,37.25
2018-03-31T22:19:05.472Z,41.90
2018-03-31T22:21:32.651Z,38.55
2018-03-31T22:23:59.793Z,37.67
2018-03-31T22:26:27.748Z,33.95
2018-03-31T22:28:55.695Z,33.78
2018-03-31T22:31:22.925Z,35.42
2018-03-31T22:33:51.696Z,39.88
2018-03-31T22:36:19.302Z,43.72
2018-03-31T22:38:47.212Z,37.03
2018-03-31T22:41:14.489Z,31.35
2018-03-31T22:43:42.828Z,31.20
2018-03-31T22:46:09.979Z,33.03
2018-03-31T22:48:37.143Z,35.05
2018-03-31T22:51:05.950Z,34.07
2018-03-31T22:53:33.940Z,33.65
2018-03-31T22:56:01.547Z,32.92
2018-03-31T22:58:29.133Z,32.90
2018-03-31T23:00:56.287Z,33.13
2018-03-31T23:03:24.295Z,34.35
2018-03-31T23:05:51.428Z,32.75
2018-03-31T23:08:19.361Z,28.92
2018-03-31T23:10:48.060Z,30.40
2018-03-31T23:13:16.758Z,30.27
2018-03-31T23:15:44.680Z,32.00
2018-03-31T23:18:12.693Z,30.37
2018-03-31T23:20:39.933Z,29.48
2018-03-31T23:23:07.093Z,27.85
2018-03-31T23:25:35.786Z,29.58
2018-03-31T23:28:03.768Z,30.00
2018-03-31T23:30:31.751Z,29.12
2018-03-31T23:32:59.679Z,29.87
2018-03-31T23:35:27.570Z,31.95
2018-03-31T23:37:56.232Z,31.25
2018-03-31T23:40:23.371Z,31.05
2018-03-31T23:42:51.015Z,30.75
2018-03-31T23:45:18.976Z,30.08
2018-03-31T23:47:47.811Z,31.10
2018-03-31T23:50:15.413Z,31.02
2018-03-31T23:52:42.603Z,32.55
2018-03-31T23:55:09.770Z,31.80
2018-03-31T23:57:37.700Z,32.67
